Time;durP1;ratioP1;P1;durP2;ratioP2;P2;SDS_P1;SDS_P2;PMS_P1;PMS_P2;Temp;Humidity;BMP_temperature;BMP_pressure;BME280_temperature;BME280_humidity;BME280_pressure;Samples;Min_cycle;Max_cycle;Signal;HPM_P1;HPM_P2
2021/07/12 00:02:01;;;;;;;4.40;3.60;;;29.70;68.30;;;;;;5132818;27;20468;-25
2021/07/12 00:04:34;;;;;;;4.17;3.77;;;29.70;69.60;;;;;;5124672;27;20503;-25
2021/07/12 00:07:07;;;;;;;4.57;3.83;;;29.50;69.80;;;;;;5124885;27;20829;-27
2021/07/12 00:09:38;;;;;;;3.80;3.50;;;29.40;70.40;;;;;;5123979;27;20452;-26
2021/07/12 00:12:12;;;;;;;3.90;3.60;;;29.40;68.40;;;;;;5128277;27;20449;-25
2021/07/12 00:14:43;;;;;;;3.80;3.50;;;29.40;68.20;;;;;;5126823;27;20458;-29
2021/07/12 00:17:16;;;;;;;3.40;3.20;;;29.30;68.30;;;;;;5123662;27;20477;-26
2021/07/12 00:19:48;;;;;;;3.57;3.37;;;29.20;70.40;;;;;;5122466;28;20439;-28
2021/07/12 00:22:21;;;;;;;3.90;3.60;;;29.20;70.10;;;;;;5136521;27;20468;-26
2021/07/12 00:24:51;;;;;;;4.70;3.90;;;29.20;69.00;;;;;;5131966;27;20893;-27
2021/07/12 00:27:22;;;;;;;5.27;4.90;;;29.20;69.10;;;;;;5138785;27;20462;-27
2021/07/12 00:29:56;;;;;;;3.93;3.50;;;29.10;70.20;;;;;;5134847;27;20538;-27
2021/07/12 00:32:27;;;;;;;3.70;3.50;;;29.00;70.70;;;;;;5124831;27;20457;-24
2021/07/12 00:35:05;;;;;;;4.30;3.90;;;28.90;69.80;;;;;;5138571;27;20425;-30
2021/07/12 00:37:39;;;;;;;3.57;3.27;;;28.90;70.10;;;;;;5129257;27;20471;-26
2021/07/12 00:40:15;;;;;;;4.30;3.90;;;28.80;69.90;;;;;;5126970;27;20469;-26
2021/07/12 00:42:46;;;;;;;4.17;3.87;;;28.80;70.00;;;;;;5140953;27;20553;-25
2021/07/12 00:45:20;;;;;;;3.67;3.37;;;28.70;70.40;;;;;;5142648;27;20504;-28
2021/07/12 00:47:52;;;;;;;4.00;3.60;;;28.70;70.40;;;;;;5144048;27;20444;-24
2021/07/12 00:50:26;;;;;;;4.70;3.80;;;28.60;71.00;;;;;;5148525;27;20424;-24
2021/07/12 00:52:59;;;;;;;3.23;3.03;;;28.60;73.00;;;;;;5143848;27;20487;-24
2021/07/12 00:55:34;;;;;;;3.73;3.43;;;28.60;72.40;;;;;;5144151;27;21002;-30
2021/07/12 00:58:11;;;;;;;3.90;3.50;;;28.50;73.50;;;;;;5145903;27;20450;-25
2021/07/12 01:00:48;;;;;;;3.67;3.40;;;28.50;74.20;;;;;;5143350;27;20458;-24
2021/07/12 01:03:19;;;;;;;4.50;4.10;;;28.60;72.90;;;;;;5142015;28;20511;-25
2021/07/12 01:05:51;;;;;;;4.07;3.77;;;28.50;73.20;;;;;;5143190;27;20448;-24
2021/07/12 01:08:24;;;;;;;3.90;3.60;;;28.40;73.20;;;;;;5143373;27;20430;-24
2021/07/12 01:11:06;;;;;;;4.10;3.80;;;28.40;73.30;;;;;;5144541;27;20429;-27
2021/07/12 01:13:44;;;;;;;3.50;3.30;;;28.30;72.90;;;;;;5142944;27;20797;-26
2021/07/12 01:16:43;;;;;;;4.47;3.70;;;28.20;74.10;;;;;;5143679;27;20451;-23
2021/07/12 01:19:50;;;;;;;4.03;3.63;;;28.20;74.40;;;;;;5143601;28;20483;-24
2021/07/12 01:22:59;;;;;;;4.30;3.13;;;28.20;74.00;;;;;;5130804;27;20495;-23
2021/07/12 01:26:07;;;;;;;3.80;3.50;;;28.10;73.60;;;;;;5059561;28;20483;-27
2021/07/12 01:29:11;;;;;;;4.00;3.70;;;28.10;73.90;;;;;;5059431;28;20451;-25
2021/07/12 01:32:03;;;;;;;4.10;3.80;;;28.00;73.50;;;;;;5059687;28;20462;-25
2021/07/12 01:34:42;;;;;;;4.40;4.10;;;27.90;74.50;;;;;;5060022;28;20490;-28
2021/07/12 01:37:32;;;;;;;4.57;4.27;;;27.80;75.10;;;;;;5060391;28;20582;-26
2021/07/12 01:40:09;;;;;;;5.40;4.20;;;27.70;74.50;;;;;;5051135;28;20522;-25
2021/07/12 01:42:48;;;;;;;3.60;3.40;;;27.70;75.00;;;;;;5062587;28;20457;-25
2021/07/12 01:45:22;;;;;;;3.87;3.57;;;27.70;74.80;;;;;;5063571;28;20498;-30
2021/07/12 01:48:04;;;;;;;4.13;3.83;;;27.60;75.20;;;;;;5063368;28;20643;-23
2021/07/12 01:50:46;;;;;;;4.20;3.40;;;27.60;74.60;;;;;;5064180;28;20489;-28
2021/07/12 01:53:22;;;;;;;4.80;3.97;;;27.50;74.70;;;;;;5063308;28;20513;-25
2021/07/12 01:55:58;;;;;;;3.80;3.50;;;27.40;75.20;;;;;;5063462;28;20622;-27
2021/07/12 01:58:35;;;;;;;3.77;3.47;;;27.40;75.70;;;;;;5062492;28;20501;-24
2021/07/12 02:01:10;;;;;;;4.27;3.97;;;27.30;76.90;;;;;;5103205;27;20449;-24
2021/07/12 02:03:42;;;;;;;3.80;3.43;;;27.20;76.60;;;;;;5146773;27;20586;-26
2021/07/12 02:06:19;;;;;;;4.23;3.93;;;27.30;77.30;;;;;;5147073;27;21087;-24
2021/07/12 02:08:53;;;;;;;3.97;3.67;;;27.20;77.70;;;;;;5146389;27;20513;-25
2021/07/12 02:11:24;;;;;;;3.50;3.30;;;27.20;78.00;;;;;;5146991;27;20473;-24
2021/07/12 02:13:56;;;;;;;4.17;3.77;;;27.20;77.70;;;;;;5125340;28;20974;-24
2021/07/12 02:16:28;;;;;;;4.27;3.97;;;27.10;77.50;;;;;;5126356;28;20972;-27
2021/07/12 02:19:00;;;;;;;4.43;3.30;;;27.10;77.70;;;;;;5131906;27;20471;-26
2021/07/12 02:21:34;;;;;;;4.30;3.90;;;26.90;78.40;;;;;;5145959;27;20453;-27
2021/07/12 02:24:06;;;;;;;3.57;3.27;;;26.90;78.60;;;;;;5141283;27;20533;-25
2021/07/12 02:26:38;;;;;;;3.93;3.63;;;26.80;79.30;;;;;;5146455;27;20484;-29
2021/07/12 02:29:11;;;;;;;3.83;3.50;;;26.80;80.20;;;;;;5145040;27;20445;-25
2021/07/12 02:31:46;;;;;;;4.63;4.23;;;26.70;80.50;;;;;;5144321;27;20475;-29
2021/07/12 02:34:18;;;;;;;3.73;3.40;;;26.70;81.10;;;;;;5145900;27;20465;-27
2021/07/12 02:36:54;;;;;;;4.20;3.80;;;26.60;80.10;;;;;;5146081;27;20432;-26
2021/07/12 02:39:28;;;;;;;4.13;3.83;;;26.50;81.40;;;;;;5136537;27;20445;-25
2021/07/12 02:42:02;;;;;;;3.60;3.40;;;26.50;81.40;;;;;;5146291;27;20471;-32
2021/07/12 02:44:34;;;;;;;4.33;4.03;;;26.40;82.00;;;;;;5144727;27;20485;-26
2021/07/12 02:47:06;;;;;;;4.33;4.03;;;26.40;81.40;;;;;;5145382;27;20509;-25
2021/07/12 02:49:37;;;;;;;3.83;3.53;;;26.30;82.20;;;;;;5142513;27;20455;-25
2021/07/12 02:52:16;;;;;;;3.93;3.40;;;26.20;83.00;;;;;;5145619;27;20499;-25
2021/07/12 02:54:51;;;;;;;3.90;3.50;;;26.20;83.80;;;;;;5144925;27;20433;-26
2021/07/12 02:57:26;;;;;;;4.47;3.47;;;26.10;83.90;;;;;;5143329;27;20445;-30
2021/07/12 02:59:57;;;;;;;3.23;3.03;;;26.10;83.80;;;;;;5143057;27;20794;-26
2021/07/12 03:02:28;;;;;;;4.00;3.70;;;26.00;84.70;;;;;;5145217;27;20446;-28
2021/07/12 03:04:59;;;;;;;3.47;3.17;;;26.00;84.90;;;;;;5144996;27;20496;-29
2021/07/12 03:07:38;;;;;;;3.80;3.50;;;25.90;85.60;;;;;;5145432;27;20441;-24
2021/07/12 03:10:13;;;;;;;4.17;3.87;;;25.80;86.20;;;;;;5145834;27;20436;-27
2021/07/12 03:12:48;;;;;;;3.90;3.30;;;25.70;87.10;;;;;;5144065;27;20437;-27
2021/07/12 03:15:26;;;;;;;3.70;3.37;;;25.60;87.80;;;;;;5145244;27;20448;-24
2021/07/12 03:17:58;;;;;;;3.73;3.40;;;25.50;88.30;;;;;;5145026;27;20441;-26
2021/07/12 03:20:31;;;;;;;3.80;3.50;;;25.50;88.10;;;;;;5145870;27;20448;-24
2021/07/12 03:23:05;;;;;;;4.00;3.70;;;25.40;88.50;;;;;;5145054;27;20486;-24
2021/07/12 03:25:56;;;;;;;4.10;3.40;;;25.40;88.70;;;;;;5143670;27;20544;-26
2021/07/12 03:28:27;;;;;;;4.10;3.70;;;25.20;89.50;;;;;;5142758;27;20445;-25
2021/07/12 03:31:00;;;;;;;4.57;3.40;;;25.20;90.00;;;;;;5145160;27;20468;-30
2021/07/12 03:33:35;;;;;;;4.03;3.43;;;25.20;90.10;;;;;;5143925;27;20449;-27
2021/07/12 03:36:06;;;;;;;4.00;3.70;;;25.00;90.40;;;;;;5145229;27;20479;-25
2021/07/12 03:38:39;;;;;;;3.50;3.20;;;25.00;90.50;;;;;;5144329;27;20463;-29
2021/07/12 03:41:14;;;;;;;3.60;3.40;;;24.90;90.80;;;;;;5144782;27;20506;-25
2021/07/12 03:43:48;;;;;;;4.60;3.53;;;24.80;91.20;;;;;;5143089;27;20551;-23
2021/07/12 03:46:19;;;;;;;4.70;3.63;;;24.70;91.50;;;;;;5140379;27;20496;-26
2021/07/12 03:48:50;;;;;;;5.10;3.80;;;24.60;91.90;;;;;;5144487;27;20437;-23
2021/07/12 03:51:24;;;;;;;3.67;3.30;;;24.50;92.20;;;;;;5144759;27;20536;-24
2021/07/12 03:53:57;;;;;;;4.10;3.70;;;24.50;92.20;;;;;;5143756;27;20451;-25
2021/07/12 03:56:31;;;;;;;3.67;3.40;;;24.40;92.40;;;;;;5144940;27;20452;-27
2021/07/12 03:59:03;;;;;;;4.03;3.73;;;24.30;92.60;;;;;;5141665;27;20468;-25
2021/07/12 04:01:37;;;;;;;3.77;3.47;;;24.20;92.80;;;;;;5144099;27;20437;-29
2021/07/12 04:04:11;;;;;;;4.30;3.90;;;24.20;93.10;;;;;;5133431;27;20440;-24
2021/07/12 04:06:42;;;;;;;3.70;3.40;;;24.20;93.20;;;;;;5142297;27;20520;-28
2021/07/12 04:09:15;;;;;;;4.73;3.90;;;24.10;93.40;;;;;;5141195;27;20445;-31
2021/07/12 04:11:55;;;;;;;3.23;2.93;;;24.00;93.90;;;;;;5144424;27;20476;-24
2021/07/12 04:14:26;;;;;;;4.07;3.70;;;24.00;94.00;;;;;;5143013;27;20448;-24
2021/07/12 04:16:57;;;;;;;4.63;3.20;;;23.90;94.00;;;;;;5142946;27;20429;-26
2021/07/12 04:19:28;;;;;;;4.33;3.50;;;23.90;94.30;;;;;;5130056;27;20870;-25
2021/07/12 04:21:59;;;;;;;5.40;4.00;;;23.80;94.70;;;;;;5143642;27;20451;-26
2021/07/12 04:24:34;;;;;;;4.07;3.70;;;23.70;94.80;;;;;;5141743;27;20459;-25
2021/07/12 04:27:05;;;;;;;4.67;4.27;;;23.60;95.10;;;;;;5142283;27;20456;-28
2021/07/12 04:29:36;;;;;;;3.80;3.33;;;23.50;95.40;;;;;;5142258;27;20541;-26
2021/07/12 04:32:08;;;;;;;3.83;3.53;;;23.40;95.80;;;;;;5141128;27;20456;-28
2021/07/12 04:34:39;;;;;;;3.37;3.17;;;23.40;96.00;;;;;;5142808;27;20440;-24
2021/07/12 04:37:10;;;;;;;3.50;3.20;;;23.30;96.50;;;;;;5142708;27;20554;-27
2021/07/12 04:39:43;;;;;;;3.60;3.30;;;23.30;96.70;;;;;;5142172;27;20449;-26
2021/07/12 04:42:16;;;;;;;3.60;3.30;;;23.20;96.80;;;;;;5143200;27;20441;-30
2021/07/12 04:44:47;;;;;;;3.50;3.30;;;23.10;97.10;;;;;;5142257;27;20473;-27
2021/07/12 04:47:37;;;;;;;3.27;2.97;;;23.10;97.50;;;;;;5143736;27;20468;-27
2021/07/12 04:50:10;;;;;;;3.60;3.30;;;23.00;98.00;;;;;;5144208;27;20514;-26
2021/07/12 04:52:44;;;;;;;3.70;3.40;;;22.90;98.10;;;;;;5143073;27;20965;-26
2021/07/12 04:55:16;;;;;;;4.27;3.37;;;22.90;98.30;;;;;;5139210;28;20476;-24
2021/07/12 04:57:48;;;;;;;3.93;3.63;;;22.80;98.50;;;;;;5142474;27;20476;-27
2021/07/12 05:00:23;;;;;;;3.50;3.20;;;22.80;98.80;;;;;;5141011;28;20441;-29
2021/07/12 05:02:56;;;;;;;5.90;3.83;;;22.70;99.10;;;;;;5142820;27;20466;-24
2021/07/12 05:05:27;;;;;;;4.63;3.20;;;22.70;99.20;;;;;;5138379;28;20480;-28
2021/07/12 05:07:58;;;;;;;3.40;3.10;;;22.60;99.50;;;;;;5143530;27;20449;-26
2021/07/12 05:10:31;;;;;;;4.07;3.27;;;22.60;99.70;;;;;;5143634;28;20455;-25
2021/07/12 05:13:02;;;;;;;3.63;3.27;;;22.50;99.90;;;;;;5144530;27;20500;-27
2021/07/12 05:15:33;;;;;;;3.80;3.50;;;22.40;99.90;;;;;;5146793;27;20559;-27
2021/07/12 05:18:10;;;;;;;3.20;2.90;;;22.30;99.90;;;;;;5141479;27;20453;-26
2021/07/12 05:20:41;;;;;;;3.23;3.03;;;22.20;99.90;;;;;;5147503;27;20469;-26
2021/07/12 05:23:12;;;;;;;3.50;3.20;;;22.20;99.90;;;;;;5146944;27;20427;-25
2021/07/12 05:25:44;;;;;;;3.20;2.90;;;22.10;99.90;;;;;;5145176;27;20476;-25
2021/07/12 05:28:15;;;;;;;3.27;2.97;;;22.00;99.90;;;;;;5147512;27;20435;-25
2021/07/12 05:30:49;;;;;;;3.07;2.87;;;22.00;99.90;;;;;;5147248;27;20455;-25
2021/07/12 05:33:20;;;;;;;3.80;3.50;;;21.90;99.90;;;;;;5147624;27;20551;-23
2021/07/12 05:35:51;;;;;;;3.90;3.60;;;21.80;99.90;;;;;;5146902;27;20447;-25
2021/07/12 05:38:22;;;;;;;3.20;2.90;;;21.80;99.90;;;;;;5146048;27;20483;-25
2021/07/12 05:40:55;;;;;;;3.70;3.30;;;21.70;99.90;;;;;;5146705;27;20427;-24
2021/07/12 05:43:26;;;;;;;5.00;3.03;;;21.70;99.90;;;;;;5144382;27;20590;-28
2021/07/12 05:45:57;;;;;;;3.30;3.00;;;21.60;99.90;;;;;;5147056;27;20504;-27
2021/07/12 05:48:28;;;;;;;3.43;3.13;;;21.50;99.90;;;;;;5145675;27;20446;-23
2021/07/12 05:50:59;;;;;;;2.97;2.77;;;21.50;99.90;;;;;;5146723;27;20441;-27
2021/07/12 05:53:32;;;;;;;3.27;2.97;;;21.50;99.90;;;;;;5145746;27;20434;-24
2021/07/12 05:56:05;;;;;;;3.53;3.00;;;21.40;99.90;;;;;;5145677;27;21015;-24
2021/07/12 05:58:36;;;;;;;3.47;3.17;;;21.40;99.90;;;;;;5142024;27;20510;-25
2021/07/12 06:01:07;;;;;;;3.33;3.00;;;21.30;99.90;;;;;;5143864;27;20444;-28
2021/07/12 06:03:38;;;;;;;3.30;3.00;;;21.10;99.90;;;;;;5145732;27;20420;-25
2021/07/12 06:06:09;;;;;;;3.03;2.73;;;21.10;99.90;;;;;;5146208;27;20951;-24
2021/07/12 06:08:40;;;;;;;3.57;3.27;;;21.00;99.90;;;;;;5146400;27;20441;-25
2021/07/12 06:11:12;;;;;;;3.03;2.83;;;20.90;99.90;;;;;;5146764;27;20448;-22
2021/07/12 06:13:43;;;;;;;6.23;3.37;;;20.90;99.90;;;;;;5130327;27;20515;-26
2021/07/12 06:16:14;;;;;;;3.60;3.30;;;20.90;99.90;;;;;;5146527;27;20515;-26
2021/07/12 06:18:46;;;;;;;3.20;2.90;;;20.90;99.90;;;;;;5145982;27;20441;-27
2021/07/12 06:21:20;;;;;;;6.33;3.33;;;20.90;99.90;;;;;;5146456;27;20468;-26
2021/07/12 06:23:51;;;;;;;3.30;3.00;;;20.80;99.90;;;;;;5145517;27;20532;-24
2021/07/12 06:26:24;;;;;;;3.33;3.03;;;20.70;99.90;;;;;;5145982;27;20552;-28
2021/07/12 06:28:55;;;;;;;3.80;3.50;;;20.70;99.90;;;;;;5145247;27;20449;-26
2021/07/12 06:31:26;;;;;;;5.53;3.00;;;20.50;99.90;;;;;;5144894;27;20423;-25
2021/07/12 06:34:00;;;;;;;2.63;2.13;;;20.50;99.90;;;;;;5145390;27;20911;-24
2021/07/12 06:36:31;;;;;;;3.13;2.40;;;20.40;99.90;;;;;;5146085;27;20517;-25
2021/07/12 06:39:02;;;;;;;3.67;3.20;;;20.30;99.90;;;;;;5145949;27;20451;-27
2021/07/12 06:41:35;;;;;;;3.87;3.47;;;20.30;99.90;;;;;;5146340;27;20439;-25
2021/07/12 06:44:09;;;;;;;2.70;2.30;;;20.20;99.90;;;;;;5144495;27;20420;-24
2021/07/12 06:46:40;;;;;;;5.23;3.23;;;20.10;99.90;;;;;;5145756;27;20513;-24
2021/07/12 06:49:16;;;;;;;2.80;2.43;;;20.10;99.90;;;;;;5144903;27;20447;-25
2021/07/12 06:51:50;;;;;;;2.80;2.60;;;20.00;99.90;;;;;;5146467;27;20816;-24
2021/07/12 06:54:21;;;;;;;2.50;2.30;;;19.90;99.90;;;;;;5140938;27;20453;-26
2021/07/12 06:57:00;;;;;;;2.87;2.50;;;19.80;99.90;;;;;;5129406;27;20484;-26
2021/07/12 06:59:33;;;;;;;3.30;3.00;;;19.80;99.90;;;;;;5144516;27;20808;-27
2021/07/12 07:02:11;;;;;;;2.93;2.63;;;19.80;99.90;;;;;;5145884;27;20497;-28
2021/07/12 07:04:42;;;;;;;5.83;3.00;;;19.70;99.90;;;;;;5144906;27;20448;-23
2021/07/12 07:07:13;;;;;;;2.93;2.60;;;19.60;99.90;;;;;;5132954;27;20884;-24
2021/07/12 07:09:44;;;;;;;3.17;2.90;;;19.60;99.90;;;;;;5145527;27;20431;-24
2021/07/12 07:12:18;;;;;;;3.00;2.70;;;19.60;99.90;;;;;;5145832;27;20756;-25
2021/07/12 07:14:50;;;;;;;3.63;3.07;;;19.60;99.90;;;;;;5145125;27;20544;-23
2021/07/12 07:17:21;;;;;;;3.00;2.70;;;19.50;99.90;;;;;;5144764;27;20456;-27
2021/07/12 07:19:52;;;;;;;3.57;2.53;;;19.40;99.90;;;;;;5145227;27;20437;-27
2021/07/12 07:22:23;;;;;;;4.00;2.80;;;19.30;99.90;;;;;;5145615;27;20441;-31
2021/07/12 07:24:54;;;;;;;2.90;2.60;;;19.30;99.90;;;;;;5145023;27;20449;-22
2021/07/12 07:27:42;;;;;;;2.53;2.30;;;19.40;99.90;;;;;;5141338;27;20488;-23
2021/07/12 07:30:15;;;;;;;2.77;2.57;;;19.40;99.90;;;;;;5144501;27;20424;-22
2021/07/12 07:32:46;;;;;;;3.17;2.60;;;19.30;99.90;;;;;;5145150;27;20447;-25
2021/07/12 07:35:17;;;;;;;3.10;2.90;;;19.20;99.90;;;;;;5143956;27;20439;-24
2021/07/12 07:37:49;;;;;;;3.13;2.60;;;19.10;99.90;;;;;;5143988;27;20441;-25
2021/07/12 07:40:22;;;;;;;3.33;3.03;;;19.10;99.90;;;;;;5145255;27;20452;-23
2021/07/12 07:42:54;;;;;;;4.10;3.80;;;19.10;99.90;;;;;;5143656;27;20448;-24
2021/07/12 07:45:28;;;;;;;3.37;2.90;;;19.10;99.90;;;;;;5144450;27;20465;-23
2021/07/12 07:48:02;;;;;;;2.90;2.70;;;18.90;99.90;;;;;;5143861;27;20481;-23
2021/07/12 07:50:36;;;;;;;2.37;2.17;;;18.90;99.90;;;;;;5144508;27;20449;-24
2021/07/12 07:53:09;;;;;;;3.13;2.83;;;18.90;99.90;;;;;;5144558;27;20478;-27
2021/07/12 07:55:41;;;;;;;3.60;2.70;;;18.90;99.90;;;;;;5152069;27;20807;-27
2021/07/12 07:58:16;;;;;;;3.10;2.50;;;18.90;99.90;;;;;;5143312;27;20456;-24
2021/07/12 08:00:47;;;;;;;3.20;2.90;;;18.90;99.90;;;;;;5144283;27;20476;-22
2021/07/12 08:03:20;;;;;;;3.73;2.83;;;18.80;99.90;;;;;;5144211;27;20449;-25
2021/07/12 08:06:00;;;;;;;3.93;2.50;;;18.70;99.90;;;;;;5138310;27;20502;-27
2021/07/12 08:08:31;;;;;;;3.47;3.00;;;18.60;99.90;;;;;;5144076;27;20512;-23
2021/07/12 08:11:02;;;;;;;2.80;2.40;;;18.60;99.90;;;;;;5144656;27;20444;-25
2021/07/12 08:13:35;;;;;;;4.10;2.97;;;18.50;99.90;;;;;;5143580;27;20518;-23
2021/07/12 08:16:17;;;;;;;4.20;3.10;;;18.50;99.90;;;;;;5144614;27;20477;-25
2021/07/12 08:18:48;;;;;;;2.87;2.67;;;18.50;99.90;;;;;;5142850;27;20472;-23
2021/07/12 08:21:19;;;;;;;4.23;3.20;;;18.40;99.90;;;;;;5139178;27;20428;-24
2021/07/12 08:23:50;;;;;;;3.07;2.83;;;18.40;99.90;;;;;;5144003;27;20444;-24
2021/07/12 08:26:21;;;;;;;5.40;3.00;;;18.40;99.90;;;;;;5144448;27;20463;-25
2021/07/12 08:28:53;;;;;;;2.80;2.60;;;18.30;99.90;;;;;;5143018;27;20519;-24
2021/07/12 08:31:24;;;;;;;3.23;2.50;;;18.20;99.90;;;;;;5144183;27;20430;-25
2021/07/12 08:33:55;;;;;;;3.50;2.83;;;18.20;99.90;;;;;;5143894;27;20490;-24
2021/07/12 08:36:26;;;;;;;5.47;2.57;;;18.20;99.90;;;;;;5137696;27;20456;-26
2021/07/12 08:39:00;;;;;;;3.07;2.77;;;18.20;99.90;;;;;;5143672;27;20456;-24
2021/07/12 08:41:35;;;;;;;3.57;2.37;;;18.10;99.90;;;;;;5143633;27;20441;-24
2021/07/12 08:44:08;;;;;;;2.73;2.53;;;18.10;99.90;;;;;;5142479;27;20921;-24
2021/07/12 08:46:42;;;;;;;2.77;2.57;;;18.00;99.90;;;;;;5143518;27;20444;-26
2021/07/12 08:49:13;;;;;;;4.10;2.90;;;18.00;99.90;;;;;;5143213;27;20917;-27
2021/07/12 08:51:45;;;;;;;3.60;2.93;;;17.90;99.90;;;;;;5143925;27;20487;-24
2021/07/12 08:54:21;;;;;;;3.67;2.73;;;17.90;99.90;;;;;;5142746;27;20445;-26
2021/07/12 08:56:52;;;;;;;3.00;2.30;;;17.80;99.90;;;;;;5144013;27;20445;-27
2021/07/12 08:59:32;;;;;;;4.27;2.53;;;17.80;99.90;;;;;;5142995;28;20437;-24
2021/07/12 09:02:09;;;;;;;2.80;2.60;;;17.80;99.90;;;;;;5142846;28;20440;-27
2021/07/12 09:04:44;;;;;;;2.87;2.63;;;17.80;99.90;;;;;;5128459;28;20444;-23
2021/07/12 09:07:21;;;;;;;3.90;2.30;;;17.70;99.90;;;;;;5142884;28;20532;-24
2021/07/12 09:10:09;;;;;;;3.13;2.93;;;17.70;99.90;;;;;;5143469;27;20540;-23
2021/07/12 09:12:42;;;;;;;2.50;2.30;;;17.60;99.90;;;;;;5127095;28;21081;-23
2021/07/12 09:15:15;;;;;;;2.53;2.33;;;17.50;99.90;;;;;;5143854;27;20472;-27
2021/07/12 09:17:47;;;;;;;3.33;2.40;;;17.50;99.90;;;;;;5143408;28;20477;-23
2021/07/12 09:20:27;;;;;;;3.30;2.60;;;17.50;99.90;;;;;;5142718;28;20423;-25
2021/07/12 09:23:00;;;;;;;4.17;2.37;;;17.40;99.90;;;;;;5143008;27;20519;-25
2021/07/12 09:25:37;;;;;;;2.80;2.47;;;17.30;99.90;;;;;;5143268;27;20464;-27
2021/07/12 09:28:08;;;;;;;2.87;2.40;;;17.30;99.90;;;;;;5129208;27;20481;-26
2021/07/12 09:30:41;;;;;;;2.20;2.00;;;17.30;99.90;;;;;;5142656;28;20465;-23
2021/07/12 09:33:22;;;;;;;2.57;2.30;;;17.30;99.90;;;;;;5143786;27;20481;-24
2021/07/12 09:36:17;;;;;;;3.13;2.63;;;17.20;99.90;;;;;;5142567;27;20445;-24
2021/07/12 09:38:48;;;;;;;4.53;2.57;;;17.20;99.90;;;;;;5132481;28;20484;-23
2021/07/12 09:41:32;;;;;;;3.00;2.80;;;17.20;99.90;;;;;;5143233;28;20452;-25
2021/07/12 09:44:04;;;;;;;3.33;2.77;;;17.10;99.90;;;;;;5141916;27;20447;-22
2021/07/12 09:46:37;;;;;;;2.77;2.37;;;17.00;99.90;;;;;;5142897;27;20567;-27
2021/07/12 09:49:11;;;;;;;3.30;2.67;;;16.90;99.90;;;;;;5142467;28;20537;-27
2021/07/12 09:51:42;;;;;;;2.73;2.53;;;16.90;99.90;;;;;;5143214;27;20444;-25
2021/07/12 09:54:20;;;;;;;3.00;2.70;;;16.90;99.90;;;;;;5142662;27;20436;-24
2021/07/12 09:56:52;;;;;;;3.90;2.70;;;16.90;99.90;;;;;;5142669;27;20826;-25
2021/07/12 09:59:24;;;;;;;6.07;2.63;;;16.80;99.90;;;;;;5142833;27;20449;-25
2021/07/12 10:01:58;;;;;;;2.73;2.27;;;16.80;99.90;;;;;;5146752;27;20445;-24
2021/07/12 10:04:29;;;;;;;2.50;2.30;;;16.80;99.90;;;;;;5146854;27;20459;-22
2021/07/12 10:07:02;;;;;;;3.10;2.77;;;16.70;99.90;;;;;;5146156;27;20462;-27
2021/07/12 10:09:33;;;;;;;3.23;2.93;;;16.60;99.90;;;;;;5146235;27;20495;-24
2021/07/12 10:12:07;;;;;;;3.73;2.60;;;16.60;99.90;;;;;;5146152;27;20449;-23
2021/07/12 10:14:41;;;;;;;2.50;2.13;;;16.60;99.90;;;;;;5145938;27;20455;-25
2021/07/12 10:17:14;;;;;;;3.30;3.00;;;16.60;99.90;;;;;;5146516;27;20449;-27
2021/07/12 10:19:56;;;;;;;3.90;2.77;;;16.60;99.90;;;;;;5135229;27;20509;-24
2021/07/12 10:22:27;;;;;;;3.53;2.53;;;16.50;99.90;;;;;;5145690;27;20449;-26
2021/07/12 10:25:07;;;;;;;3.10;2.80;;;16.40;99.90;;;;;;5146220;27;20440;-27
2021/07/12 10:27:50;;;;;;;2.80;2.60;;;16.40;99.90;;;;;;5143804;27;20521;-25
2021/07/12 10:30:28;;;;;;;3.00;2.70;;;16.40;99.90;;;;;;5146408;27;20455;-28
2021/07/12 10:33:09;;;;;;;3.10;2.77;;;16.40;99.90;;;;;;5145916;27;20496;-23
2021/07/12 10:35:47;;;;;;;3.37;2.70;;;16.30;99.90;;;;;;5131054;27;20448;-23
2021/07/12 10:38:25;;;;;;;2.80;2.53;;;16.20;99.90;;;;;;5136246;27;20464;-24
2021/07/12 10:40:57;;;;;;;3.03;2.37;;;16.20;99.90;;;;;;5145639;27;20448;-23
2021/07/12 10:43:48;;;;;;;2.73;2.53;;;16.10;99.90;;;;;;5144819;27;20552;-27
2021/07/12 10:46:41;;;;;;;3.00;2.80;;;16.10;99.90;;;;;;5141283;27;20808;-24
2021/07/12 10:49:39;;;;;;;3.00;2.80;;;16.10;99.90;;;;;;5139474;27;21159;-24
2021/07/12 10:52:42;;;;;;;4.47;2.30;;;16.00;99.90;;;;;;5129058;27;20928;-23
2021/07/12 10:55:15;;;;;;;2.80;2.60;;;16.00;99.90;;;;;;5146493;27;20445;-24
2021/07/12 10:57:45;;;;;;;2.80;2.60;;;15.90;99.90;;;;;;5143784;27;20555;-24
2021/07/12 11:00:19;;;;;;;2.53;2.30;;;15.90;99.90;;;;;;5145695;27;20445;-23
2021/07/12 11:02:50;;;;;;;4.17;2.30;;;15.80;99.90;;;;;;5144742;27;20449;-23
2021/07/12 11:05:23;;;;;;;3.83;2.40;;;15.80;99.90;;;;;;5145415;27;20458;-26
2021/07/12 11:07:56;;;;;;;4.10;2.50;;;15.70;99.90;;;;;;5145420;27;20552;-22
2021/07/12 11:10:31;;;;;;;2.50;2.30;;;15.80;99.90;;;;;;5129800;27;20444;-25
2021/07/12 11:13:02;;;;;;;4.10;2.43;;;15.80;99.90;;;;;;5144516;27;20473;-23
2021/07/12 11:15:36;;;;;;;2.90;2.67;;;15.80;99.90;;;;;;5145810;27;20510;-25
2021/07/12 11:18:30;;;;;;;3.13;2.73;;;15.70;99.90;;;;;;5145244;27;20441;-24
2021/07/12 11:21:15;;;;;;;3.33;2.57;;;15.60;99.90;;;;;;5145681;27;20451;-22
2021/07/12 11:24:15;;;;;;;2.90;2.40;;;15.60;99.90;;;;;;5144703;27;20473;-23
2021/07/12 11:26:51;;;;;;;2.57;2.37;;;15.60;99.90;;;;;;5143338;27;20454;-23
2021/07/12 11:29:30;;;;;;;2.27;2.07;;;15.50;99.90;;;;;;5138798;27;20684;-24
2021/07/12 11:32:12;;;;;;;6.70;2.33;;;15.50;99.90;;;;;;5145591;27;20445;-25
2021/07/12 11:34:57;;;;;;;4.70;2.50;;;15.50;99.90;;;;;;5145579;27;20445;-26
2021/07/12 11:37:30;;;;;;;4.20;2.83;;;15.50;99.90;;;;;;5143188;27;20451;-23
2021/07/12 11:40:06;;;;;;;2.60;2.40;;;15.40;99.90;;;;;;5145450;27;20445;-24
2021/07/12 11:42:40;;;;;;;4.97;1.93;;;15.30;99.90;;;;;;5143117;27;20445;-22
2021/07/12 11:45:30;;;;;;;2.03;1.93;;;15.30;99.90;;;;;;5144309;27;20500;-22
2021/07/12 11:48:04;;;;;;;3.00;2.40;;;15.30;99.90;;;;;;5143630;27;20440;-22
2021/07/12 11:50:35;;;;;;;3.20;2.90;;;15.20;99.90;;;;;;5144206;27;20477;-25
2021/07/12 11:53:12;;;;;;;2.47;2.27;;;15.20;99.90;;;;;;5144879;27;20497;-23
2021/07/12 11:55:43;;;;;;;3.50;2.90;;;15.10;99.90;;;;;;5144026;27;20492;-23
2021/07/12 11:58:14;;;;;;;3.17;2.20;;;15.10;99.90;;;;;;5143275;27;20441;-22
2021/07/12 12:00:45;;;;;;;4.17;2.73;;;15.10;99.90;;;;;;5143844;27;20480;-22
2021/07/12 12:03:16;;;;;;;3.90;2.50;;;15.10;99.90;;;;;;5144505;27;20804;-25
2021/07/12 12:05:48;;;;;;;4.30;2.17;;;15.00;99.90;;;;;;5144371;27;20460;-22
2021/07/12 12:08:21;;;;;;;2.43;2.23;;;15.00;99.90;;;;;;5143906;27;20449;-24
2021/07/12 12:10:54;;;;;;;4.97;2.87;;;15.00;99.90;;;;;;5144020;27;20563;-22
2021/07/12 12:13:25;;;;;;;2.80;2.60;;;15.00;99.90;;;;;;5143334;27;20448;-28
2021/07/12 12:15:56;;;;;;;2.70;2.50;;;14.90;99.90;;;;;;5143661;27;20943;-22
2021/07/12 12:18:32;;;;;;;3.60;2.70;;;14.90;99.90;;;;;;5142484;27;20504;-23
2021/07/12 12:21:06;;;;;;;3.97;2.20;;;14.90;99.90;;;;;;5143938;27;20439;-22
2021/07/12 12:23:39;;;;;;;3.20;2.53;;;14.90;99.90;;;;;;5143349;27;20455;-22
2021/07/12 12:26:13;;;;;;;3.03;2.73;;;14.80;99.90;;;;;;5144079;27;20857;-25
2021/07/12 12:28:47;;;;;;;2.83;2.50;;;14.90;99.90;;;;;;5134952;27;20535;-23
2021/07/12 12:31:20;;;;;;;5.50;2.50;;;14.80;99.90;;;;;;5143786;27;20505;-23
2021/07/12 12:33:59;;;;;;;3.53;2.17;;;14.70;99.90;;;;;;5143602;27;20505;-24
2021/07/12 12:36:34;;;;;;;3.07;2.50;;;14.70;99.90;;;;;;5143701;27;20480;-22
2021/07/12 12:39:09;;;;;;;3.43;3.00;;;14.70;99.90;;;;;;5143285;27;20441;-23
2021/07/12 12:41:41;;;;;;;2.63;2.43;;;14.70;99.90;;;;;;5143744;27;20480;-25
2021/07/12 12:44:13;;;;;;;3.83;2.20;;;14.70;99.90;;;;;;5142726;27;21023;-24
2021/07/12 12:46:53;;;;;;;4.40;2.87;;;14.70;99.90;;;;;;5129039;28;20475;-23
2021/07/12 12:49:25;;;;;;;3.60;2.80;;;14.70;99.90;;;;;;5143538;27;20504;-25
2021/07/12 12:51:57;;;;;;;2.70;2.50;;;14.60;99.90;;;;;;5143633;27;20445;-27
2021/07/12 12:54:34;;;;;;;2.50;2.30;;;14.60;99.90;;;;;;5140695;28;20554;-27
2021/07/12 12:57:06;;;;;;;4.57;2.70;;;14.70;99.90;;;;;;5144094;27;20435;-23
2021/07/12 12:59:38;;;;;;;3.23;2.70;;;14.70;99.90;;;;;;5142635;28;20469;-22
2021/07/12 13:02:11;;;;;;;3.30;3.00;;;14.70;99.90;;;;;;5141401;28;20488;-24
2021/07/12 13:04:45;;;;;;;2.67;2.47;;;14.70;99.90;;;;;;5142975;27;20444;-23
2021/07/12 13:07:18;;;;;;;3.87;2.70;;;14.80;99.90;;;;;;5143439;27;20468;-22
2021/07/12 13:10:02;;;;;;;2.50;2.30;;;14.90;99.90;;;;;;5143254;27;20552;-23
2021/07/12 13:12:44;;;;;;;3.00;2.77;;;15.00;99.90;;;;;;5142433;28;20429;-22
2021/07/12 13:15:18;;;;;;;8.10;3.00;;;15.00;99.90;;;;;;5141565;28;20892;-26
2021/07/12 13:17:52;;;;;;;3.40;3.10;;;15.10;99.90;;;;;;5142496;27;20920;-23
2021/07/12 13:20:26;;;;;;;3.93;2.57;;;15.20;99.90;;;;;;5143758;27;20899;-25
2021/07/12 13:22:58;;;;;;;4.10;3.00;;;15.30;99.90;;;;;;5141902;27;20445;-26
2021/07/12 13:25:34;;;;;;;3.80;3.47;;;15.30;99.90;;;;;;5143294;27;20602;-26
2021/07/12 13:28:07;;;;;;;3.37;3.07;;;15.30;99.90;;;;;;5142758;27;20440;-22